sensor_id;sensor_type;location;lat;lon;timestamp;pressure;altitude;pressure_sealevel;temperature;humidity
52319;BME280;38258;51.148;14.068;2022-09-09T00:00:26;97949.13;;;11.12;100.00
52319;BME280;38258;51.148;14.068;2022-09-09T00:03:01;97949.50;;;11.25;100.00
52319;BME280;38258;51.148;14.068;2022-09-09T00:05:33;97947.81;;;11.46;100.00
52319;BME280;38258;51.148;14.068;2022-09-09T00:08:13;97939.78;;;11.73;100.00
52319;BME280;38258;51.148;14.068;2022-09-09T00:10:42;97944.59;;;11.62;100.00
52319;BME280;38258;51.148;14.068;2022-09-09T00:13:17;97950.06;;;11.55;100.00
52319;BME280;38258;51.148;14.068;2022-09-09T00:15:54;97959.41;;;11.39;100.00
52319;BME280;38258;51.148;14.068;2022-09-09T00:18:25;97946.69;;;11.29;100.00
52319;BME280;38258;51.148;14.068;2022-09-09T00:20:58;97955.06;;;11.62;100.00
52319;BME280;38258;51.148;14.068;2022-09-09T00:23:33;97945.50;;;11.38;100.00
52319;BME280;38258;51.148;14.068;2022-09-09T00:26:09;97953.97;;;11.21;100.00
52319;BME280;38258;51.148;14.068;2022-09-09T00:28:41;97956.06;;;11.13;100.00
52319;BME280;38258;51.148;14.068;2022-09-09T00:31:14;97961.16;;;10.92;100.00
52319;BME280;38258;51.148;14.068;2022-09-09T00:33:44;97952.00;;;10.80;100.00
52319;BME280;38258;51.148;14.068;2022-09-09T00:36:13;97954.78;;;10.75;100.00
52319;BME280;38258;51.148;14.068;2022-09-09T00:38:46;97962.94;;;10.66;100.00
52319;BME280;38258;51.148;14.068;2022-09-09T00:41:20;97953.53;;;10.60;100.00
52319;BME280;38258;51.148;14.068;2022-09-09T00:43:56;97954.25;;;10.66;100.00
52319;BME280;38258;51.148;14.068;2022-09-09T00:46:52;97949.19;;;10.61;100.00
52319;BME280;38258;51.148;14.068;2022-09-09T00:49:28;97946.09;;;10.50;100.00
52319;BME280;38258;51.148;14.068;2022-09-09T00:52:08;97954.25;;;10.40;100.00
52319;BME280;38258;51.148;14.068;2022-09-09T00:54:54;97952.84;;;10.30;100.00
52319;BME280;38258;51.148;14.068;2022-09-09T00:57:27;97936.81;;;10.14;100.00
52319;BME280;38258;51.148;14.068;2022-09-09T01:00:16;97954.06;;;10.19;100.00
52319;BME280;38258;51.148;14.068;2022-09-09T01:02:52;97949.13;;;10.10;100.00
52319;BME280;38258;51.148;14.068;2022-09-09T01:05:29;97951.09;;;10.03;100.00
52319;BME280;38258;51.148;14.068;2022-09-09T01:07:57;97952.22;;;9.96;100.00
52319;BME280;38258;51.148;14.068;2022-09-09T01:10:37;97957.84;;;9.84;100.00
52319;BME280;38258;51.148;14.068;2022-09-09T01:13:12;97962.38;;;9.79;100.00
52319;BME280;38258;51.148;14.068;2022-09-09T01:15:44;97955.81;;;9.65;100.00
52319;BME280;38258;51.148;14.068;2022-09-09T01:18:15;97960.38;;;9.58;100.00
52319;BME280;38258;51.148;14.068;2022-09-09T01:20:51;97956.38;;;9.46;100.00
52319;BME280;38258;51.148;14.068;2022-09-09T01:23:39;97958.94;;;9.48;100.00
52319;BME280;38258;51.148;14.068;2022-09-09T01:26:37;97948.72;;;9.42;100.00
52319;BME280;38258;51.148;14.068;2022-09-09T01:29:13;97957.09;;;9.52;100.00
52319;BME280;38258;51.148;14.068;2022-09-09T01:31:52;97951.25;;;9.43;100.00
52319;BME280;38258;51.148;14.068;2022-09-09T01:34:21;97955.91;;;9.33;100.00
52319;BME280;38258;51.148;14.068;2022-09-09T01:36:53;97962.16;;;9.28;100.00
52319;BME280;38258;51.148;14.068;2022-09-09T01:39:23;97962.94;;;9.31;100.00
52319;BME280;38258;51.148;14.068;2022-09-09T01:42:01;97956.97;;;9.56;100.00
52319;BME280;38258;51.148;14.068;2022-09-09T01:44:29;97945.09;;;9.46;100.00
52319;BME280;38258;51.148;14.068;2022-09-09T01:46:57;97953.34;;;9.60;100.00
52319;BME280;38258;51.148;14.068;2022-09-09T01:49:24;97944.16;;;9.48;100.00
52319;BME280;38258;51.148;14.068;2022-09-09T01:51:53;97937.88;;;9.26;100.00
52319;BME280;38258;51.148;14.068;2022-09-09T01:54:31;97946.47;;;8.99;100.00
52319;BME280;38258;51.148;14.068;2022-09-09T01:57:10;97948.19;;;9.00;100.00
52319;BME280;38258;51.148;14.068;2022-09-09T01:59:49;97950.56;;;9.08;100.00
52319;BME280;38258;51.148;14.068;2022-09-09T02:02:25;97950.00;;;8.98;100.00
52319;BME280;38258;51.148;14.068;2022-09-09T02:05:20;97942.16;;;8.98;100.00
52319;BME280;38258;51.148;14.068;2022-09-09T02:07:52;97949.16;;;8.96;100.00
52319;BME280;38258;51.148;14.068;2022-09-09T02:10:40;97945.84;;;8.91;100.00
52319;BME280;38258;51.148;14.068;2022-09-09T02:13:18;97944.31;;;8.84;100.00
52319;BME280;38258;51.148;14.068;2022-09-09T02:15:52;97918.88;;;8.60;100.00
52319;BME280;38258;51.148;14.068;2022-09-09T02:18:27;97947.03;;;8.79;100.00
52319;BME280;38258;51.148;14.068;2022-09-09T02:20:56;97942.53;;;8.84;100.00
52319;BME280;38258;51.148;14.068;2022-09-09T02:23:25;97947.25;;;8.71;100.00
52319;BME280;38258;51.148;14.068;2022-09-09T02:25:55;97948.06;;;8.73;100.00
52319;BME280;38258;51.148;14.068;2022-09-09T02:28:28;97945.50;;;8.72;100.00
52319;BME280;38258;51.148;14.068;2022-09-09T02:30:56;97941.94;;;8.76;100.00
52319;BME280;38258;51.148;14.068;2022-09-09T02:33:33;97940.72;;;8.56;100.00
52319;BME280;38258;51.148;14.068;2022-09-09T02:36:03;97955.97;;;8.70;100.00
52319;BME280;38258;51.148;14.068;2022-09-09T02:38:36;97955.19;;;8.68;100.00
52319;BME280;38258;51.148;14.068;2022-09-09T02:41:09;97953.53;;;8.64;100.00
52319;BME280;38258;51.148;14.068;2022-09-09T02:43:37;97950.47;;;8.81;100.00
52319;BME280;38258;51.148;14.068;2022-09-09T02:46:23;97949.00;;;9.02;100.00
52319;BME280;38258;51.148;14.068;2022-09-09T02:48:59;97948.16;;;8.70;100.00
52319;BME280;38258;51.148;14.068;2022-09-09T02:51:36;97959.50;;;8.69;100.00
52319;BME280;38258;51.148;14.068;2022-09-09T02:54:12;97951.88;;;8.61;100.00
52319;BME280;38258;51.148;14.068;2022-09-09T02:56:47;97963.34;;;8.56;100.00
52319;BME280;38258;51.148;14.068;2022-09-09T02:59:19;97963.38;;;8.53;100.00
52319;BME280;38258;51.148;14.068;2022-09-09T03:01:46;97958.22;;;8.49;100.00
52319;BME280;38258;51.148;14.068;2022-09-09T03:04:14;97956.53;;;8.48;100.00
52319;BME280;38258;51.148;14.068;2022-09-09T03:06:41;97948.13;;;8.37;100.00
52319;BME280;38258;51.148;14.068;2022-09-09T03:09:16;97951.69;;;8.34;100.00
52319;BME280;38258;51.148;14.068;2022-09-09T03:11:43;97961.25;;;8.34;100.00
52319;BME280;38258;51.148;14.068;2022-09-09T03:14:12;97950.22;;;8.24;100.00
52319;BME280;38258;51.148;14.068;2022-09-09T03:16:41;97958.94;;;8.23;100.00
52319;BME280;38258;51.148;14.068;2022-09-09T03:19:09;97956.53;;;8.14;100.00
52319;BME280;38258;51.148;14.068;2022-09-09T03:21:36;97963.28;;;8.23;100.00
52319;BME280;38258;51.148;14.068;2022-09-09T03:24:05;97935.06;;;8.05;100.00
52319;BME280;38258;51.148;14.068;2022-09-09T03:26:32;97949.59;;;8.14;100.00
52319;BME280;38258;51.148;14.068;2022-09-09T03:29:00;97960.91;;;8.13;100.00
52319;BME280;38258;51.148;14.068;2022-09-09T03:31:29;97959.97;;;8.16;100.00
52319;BME280;38258;51.148;14.068;2022-09-09T03:33:59;97958.63;;;8.35;100.00
52319;BME280;38258;51.148;14.068;2022-09-09T03:36:29;97961.25;;;8.34;100.00
52319;BME280;38258;51.148;14.068;2022-09-09T03:38:57;97962.38;;;8.24;100.00
52319;BME280;38258;51.148;14.068;2022-09-09T03:41:26;97959.25;;;8.09;100.00
52319;BME280;38258;51.148;14.068;2022-09-09T03:43:53;97959.31;;;8.07;100.00
52319;BME280;38258;51.148;14.068;2022-09-09T03:46:24;97957.56;;;8.08;100.00
52319;BME280;38258;51.148;14.068;2022-09-09T03:48:52;97964.47;;;8.09;100.00
52319;BME280;38258;51.148;14.068;2022-09-09T03:51:20;97965.16;;;8.16;100.00
52319;BME280;38258;51.148;14.068;2022-09-09T03:53:48;97964.13;;;8.23;100.00
52319;BME280;38258;51.148;14.068;2022-09-09T03:56:14;97958.66;;;7.99;100.00
52319;BME280;38258;51.148;14.068;2022-09-09T03:58:41;97963.94;;;7.96;100.00
52319;BME280;38258;51.148;14.068;2022-09-09T04:01:11;97953.78;;;7.85;100.00
52319;BME280;38258;51.148;14.068;2022-09-09T04:03:40;97958.72;;;7.96;100.00
52319;BME280;38258;51.148;14.068;2022-09-09T04:06:09;97956.22;;;7.91;100.00
52319;BME280;38258;51.148;14.068;2022-09-09T04:08:39;97934.81;;;7.80;100.00
52319;BME280;38258;51.148;14.068;2022-09-09T04:11:07;97954.81;;;8.14;100.00
52319;BME280;38258;51.148;14.068;2022-09-09T04:13:37;97950.75;;;8.02;100.00
52319;BME280;38258;51.148;14.068;2022-09-09T04:16:06;97966.19;;;8.10;100.00
52319;BME280;38258;51.148;14.068;2022-09-09T04:18:34;97956.34;;;8.21;100.00
52319;BME280;38258;51.148;14.068;2022-09-09T04:21:01;97968.47;;;8.57;100.00
52319;BME280;38258;51.148;14.068;2022-09-09T04:23:30;97966.22;;;8.76;100.00
52319;BME280;38258;51.148;14.068;2022-09-09T04:25:59;97962.56;;;8.84;100.00
52319;BME280;38258;51.148;14.068;2022-09-09T04:28:28;97965.88;;;8.89;100.00
52319;BME280;38258;51.148;14.068;2022-09-09T04:30:55;97959.91;;;8.85;100.00
52319;BME280;38258;51.148;14.068;2022-09-09T04:33:24;97963.06;;;8.97;100.00
52319;BME280;38258;51.148;14.068;2022-09-09T04:35:52;97964.44;;;9.09;100.00
52319;BME280;38258;51.148;14.068;2022-09-09T04:38:21;97960.31;;;9.01;100.00
52319;BME280;38258;51.148;14.068;2022-09-09T04:40:50;97967.66;;;9.18;100.00
52319;BME280;38258;51.148;14.068;2022-09-09T04:43:21;97963.19;;;9.22;100.00
52319;BME280;38258;51.148;14.068;2022-09-09T04:45:49;97965.94;;;9.17;100.00
52319;BME280;38258;51.148;14.068;2022-09-09T04:48:20;97946.03;;;9.15;100.00
52319;BME280;38258;51.148;14.068;2022-09-09T04:50:55;97959.59;;;9.55;100.00
52319;BME280;38258;51.148;14.068;2022-09-09T04:53:22;97967.41;;;9.56;100.00
52319;BME280;38258;51.148;14.068;2022-09-09T04:55:51;97964.50;;;9.93;100.00
52319;BME280;38258;51.148;14.068;2022-09-09T04:58:19;97959.34;;;9.91;100.00
52319;BME280;38258;51.148;14.068;2022-09-09T05:00:49;97960.75;;;10.01;100.00
52319;BME280;38258;51.148;14.068;2022-09-09T05:03:17;97959.41;;;9.89;100.00
52319;BME280;38258;51.148;14.068;2022-09-09T05:05:45;97969.13;;;10.11;100.00
52319;BME280;38258;51.148;14.068;2022-09-09T05:08:12;97968.91;;;10.19;100.00
52319;BME280;38258;51.148;14.068;2022-09-09T05:10:40;97974.28;;;10.14;100.00
52319;BME280;38258;51.148;14.068;2022-09-09T05:13:08;97967.00;;;10.23;100.00
52319;BME280;38258;51.148;14.068;2022-09-09T05:15:35;97976.25;;;10.33;100.00
52319;BME280;38258;51.148;14.068;2022-09-09T05:18:04;97980.59;;;10.59;100.00
52319;BME280;38258;51.148;14.068;2022-09-09T05:20:31;97966.25;;;10.95;100.00
52319;BME280;38258;51.148;14.068;2022-09-09T05:23:00;97961.25;;;11.37;100.00
52319;BME280;38258;51.148;14.068;2022-09-09T05:25:29;97963.38;;;11.49;100.00
52319;BME280;38258;51.148;14.068;2022-09-09T05:27:58;97962.31;;;11.55;100.00
52319;BME280;38258;51.148;14.068;2022-09-09T05:30:25;97980.06;;;11.69;100.00
52319;BME280;38258;51.148;14.068;2022-09-09T05:32:52;97984.91;;;11.57;100.00
52319;BME280;38258;51.148;14.068;2022-09-09T05:35:23;97979.81;;;11.77;100.00
52319;BME280;38258;51.148;14.068;2022-09-09T05:37:50;97980.47;;;12.04;100.00
52319;BME280;38258;51.148;14.068;2022-09-09T05:40:18;97984.63;;;12.10;100.00
52319;BME280;38258;51.148;14.068;2022-09-09T05:42:47;97986.16;;;12.36;100.00
52319;BME280;38258;51.148;14.068;2022-09-09T05:45:14;97991.84;;;12.25;100.00
52319;BME280;38258;51.148;14.068;2022-09-09T05:47:41;97976.63;;;12.34;100.00
52319;BME280;38258;51.148;14.068;2022-09-09T05:50:10;97983.41;;;12.60;100.00
52319;BME280;38258;51.148;14.068;2022-09-09T05:52:40;97988.13;;;12.52;100.00
52319;BME280;38258;51.148;14.068;2022-09-09T05:55:08;97991.41;;;12.57;100.00
52319;BME280;38258;51.148;14.068;2022-09-09T05:57:35;97979.06;;;12.80;100.00
52319;BME280;38258;51.148;14.068;2022-09-09T06:00:03;97992.75;;;12.86;100.00
52319;BME280;38258;51.148;14.068;2022-09-09T06:02:39;97997.06;;;13.08;100.00
52319;BME280;38258;51.148;14.068;2022-09-09T06:05:08;97995.59;;;13.22;100.00
52319;BME280;38258;51.148;14.068;2022-09-09T06:07:36;97984.44;;;13.36;100.00
52319;BME280;38258;51.148;14.068;2022-09-09T06:10:10;97990.44;;;13.59;100.00
52319;BME280;38258;51.148;14.068;2022-09-09T06:12:39;98000.28;;;13.73;100.00
52319;BME280;38258;51.148;14.068;2022-09-09T06:15:07;97999.91;;;13.80;100.00
52319;BME280;38258;51.148;14.068;2022-09-09T06:17:34;97992.69;;;13.85;100.00
52319;BME280;38258;51.148;14.068;2022-09-09T06:20:02;98000.81;;;13.98;100.00
52319;BME280;38258;51.148;14.068;2022-09-09T06:22:31;98006.41;;;14.10;100.00
52319;BME280;38258;51.148;14.068;2022-09-09T06:24:57;98004.00;;;14.23;100.00
52319;BME280;38258;51.148;14.068;2022-09-09T06:27:28;98008.72;;;14.16;100.00
52319;BME280;38258;51.148;14.068;2022-09-09T06:29:55;98013.16;;;14.33;100.00
52319;BME280;38258;51.148;14.068;2022-09-09T06:32:22;98008.75;;;14.51;100.00
52319;BME280;38258;51.148;14.068;2022-09-09T06:34:49;98020.88;;;14.54;100.00
52319;BME280;38258;51.148;14.068;2022-09-09T06:37:16;98018.66;;;14.46;100.00
52319;BME280;38258;51.148;14.068;2022-09-09T06:39:47;98015.19;;;14.46;100.00
52319;BME280;38258;51.148;14.068;2022-09-09T06:42:14;98019.44;;;14.66;100.00
52319;BME280;38258;51.148;14.068;2022-09-09T06:44:55;98019.06;;;14.74;100.00
52319;BME280;38258;51.148;14.068;2022-09-09T06:47:41;98020.00;;;14.73;100.00
52319;BME280;38258;51.148;14.068;2022-09-09T06:50:09;98012.47;;;14.82;100.00
52319;BME280;38258;51.148;14.068;2022-09-09T06:52:37;98016.34;;;14.57;100.00
52319;BME280;38258;51.148;14.068;2022-09-09T06:55:05;98017.97;;;14.78;100.00
52319;BME280;38258;51.148;14.068;2022-09-09T06:57:33;98013.25;;;14.67;100.00
52319;BME280;38258;51.148;14.068;2022-09-09T07:00:03;98018.22;;;14.73;100.00
52319;BME280;38258;51.148;14.068;2022-09-09T07:02:30;98019.13;;;14.90;100.00
52319;BME280;38258;51.148;14.068;2022-09-09T07:04:57;98011.59;;;15.00;100.00
52319;BME280;38258;51.148;14.068;2022-09-09T07:07:25;98011.09;;;15.09;100.00
52319;BME280;38258;51.148;14.068;2022-09-09T07:09:52;98009.69;;;15.19;100.00
52319;BME280;38258;51.148;14.068;2022-09-09T07:12:19;98006.09;;;15.54;100.00
52319;BME280;38258;51.148;14.068;2022-09-09T07:14:53;98013.84;;;15.73;100.00
52319;BME280;38258;51.148;14.068;2022-09-09T07:17:22;98009.25;;;15.93;100.00
52319;BME280;38258;51.148;14.068;2022-09-09T07:19:49;98011.25;;;16.20;100.00
52319;BME280;38258;51.148;14.068;2022-09-09T07:22:16;98006.38;;;16.28;100.00
52319;BME280;38258;51.148;14.068;2022-09-09T07:24:43;98008.66;;;16.65;100.00
52319;BME280;38258;51.148;14.068;2022-09-09T07:27:12;98010.47;;;16.79;100.00
52319;BME280;38258;51.148;14.068;2022-09-09T07:29:39;98021.47;;;17.02;100.00
52319;BME280;38258;51.148;14.068;2022-09-09T07:32:07;98020.84;;;16.96;100.00
52319;BME280;38258;51.148;14.068;2022-09-09T07:34:38;98023.81;;;17.06;100.00
52319;BME280;38258;51.148;14.068;2022-09-09T07:37:05;98020.16;;;17.23;100.00
52319;BME280;38258;51.148;14.068;2022-09-09T07:39:33;98022.50;;;17.28;100.00
52319;BME280;38258;51.148;14.068;2022-09-09T07:42:01;98014.28;;;17.47;100.00
52319;BME280;38258;51.148;14.068;2022-09-09T07:44:28;98015.34;;;17.87;100.00
52319;BME280;38258;51.148;14.068;2022-09-09T07:47:08;97989.78;;;18.15;100.00
52319;BME280;38258;51.148;14.068;2022-09-09T07:49:41;98014.59;;;18.40;100.00
52319;BME280;38258;51.148;14.068;2022-09-09T07:52:08;98003.69;;;18.44;100.00
52319;BME280;38258;51.148;14.068;2022-09-09T07:54:39;98019.34;;;18.34;100.00
52319;BME280;38258;51.148;14.068;2022-09-09T07:57:06;98019.75;;;18.28;100.00
52319;BME280;38258;51.148;14.068;2022-09-09T07:59:35;98020.31;;;18.33;100.00
52319;BME280;38258;51.148;14.068;2022-09-09T08:02:03;98022.31;;;18.30;100.00
52319;BME280;38258;51.148;14.068;2022-09-09T08:04:32;98026.56;;;18.05;100.00
52319;BME280;38258;51.148;14.068;2022-09-09T08:07:01;98028.59;;;17.87;100.00
52319;BME280;38258;51.148;14.068;2022-09-09T08:09:32;98040.16;;;17.99;100.00
52319;BME280;38258;51.148;14.068;2022-09-09T08:12:25;98031.78;;;17.92;100.00
52319;BME280;38258;51.148;14.068;2022-09-09T08:14:52;98032.75;;;18.59;100.00
52319;BME280;38258;51.148;14.068;2022-09-09T08:17:20;98032.28;;;19.44;100.00
52319;BME280;38258;51.148;14.068;2022-09-09T08:19:48;98028.22;;;20.02;99.22
52319;BME280;38258;51.148;14.068;2022-09-09T08:22:21;98029.81;;;19.91;94.10
52319;BME280;38258;51.148;14.068;2022-09-09T08:24:50;98036.22;;;19.39;92.61
52319;BME280;38258;51.148;14.068;2022-09-09T08:27:17;98030.25;;;19.48;95.83
52319;BME280;38258;51.148;14.068;2022-09-09T08:29:44;98028.47;;;19.99;90.54
52319;BME280;38258;51.148;14.068;2022-09-09T08:32:12;98027.97;;;20.54;92.29
52319;BME280;38258;51.148;14.068;2022-09-09T08:34:39;98025.50;;;20.15;92.02
52319;BME280;38258;51.148;14.068;2022-09-09T08:37:12;98029.19;;;20.25;89.70
52319;BME280;38258;51.148;14.068;2022-09-09T08:39:42;98034.97;;;19.95;87.38
52319;BME280;38258;51.148;14.068;2022-09-09T08:45:03;98035.63;;;20.10;88.66
52319;BME280;38258;51.148;14.068;2022-09-09T08:47:42;98034.09;;;19.94;85.30
52319;BME280;38258;51.148;14.068;2022-09-09T08:50:21;98048.84;;;19.85;88.82
52319;BME280;38258;51.148;14.068;2022-09-09T08:52:56;98050.03;;;19.94;83.76
52319;BME280;38258;51.148;14.068;2022-09-09T08:55:35;98051.00;;;19.67;82.81
52319;BME280;38258;51.148;14.068;2022-09-09T08:58:11;98062.41;;;19.30;89.78
52319;BME280;38258;51.148;14.068;2022-09-09T09:00:47;98064.69;;;18.83;96.90
52319;BME280;38258;51.148;14.068;2022-09-09T09:03:25;98064.53;;;18.99;97.54
52319;BME280;38258;51.148;14.068;2022-09-09T09:06:01;98065.19;;;19.03;99.13
52319;BME280;38258;51.148;14.068;2022-09-09T09:08:39;98064.97;;;19.32;89.24
52319;BME280;38258;51.148;14.068;2022-09-09T09:11:10;98056.59;;;20.26;87.75
52319;BME280;38258;51.148;14.068;2022-09-09T09:13:41;98055.66;;;20.62;80.24
52319;BME280;38258;51.148;14.068;2022-09-09T09:16:21;98052.44;;;19.97;86.04
52319;BME280;38258;51.148;14.068;2022-09-09T09:18:51;98060.34;;;19.73;88.07
52319;BME280;38258;51.148;14.068;2022-09-09T09:21:21;98057.59;;;19.74;87.24
52319;BME280;38258;51.148;14.068;2022-09-09T09:23:56;98043.53;;;20.58;83.26
52319;BME280;38258;51.148;14.068;2022-09-09T09:26:32;98058.41;;;20.25;83.60
52319;BME280;38258;51.148;14.068;2022-09-09T09:29:01;98053.88;;;20.74;83.93
52319;BME280;38258;51.148;14.068;2022-09-09T09:31:35;98050.75;;;21.16;83.80
52319;BME280;38258;51.148;14.068;2022-09-09T09:34:02;98053.34;;;20.94;77.36
52319;BME280;38258;51.148;14.068;2022-09-09T09:36:37;98057.41;;;20.51;83.77
52319;BME280;38258;51.148;14.068;2022-09-09T09:39:05;98053.53;;;20.19;79.45
52319;BME280;38258;51.148;14.068;2022-09-09T09:41:38;98062.16;;;20.83;78.43
52319;BME280;38258;51.148;14.068;2022-09-09T09:44:19;98062.91;;;20.60;78.89
52319;BME280;38258;51.148;14.068;2022-09-09T09:46:48;98066.34;;;20.01;86.91
52319;BME280;38258;51.148;14.068;2022-09-09T09:49:15;98074.91;;;19.54;93.25
52319;BME280;38258;51.148;14.068;2022-09-09T09:51:43;98082.19;;;18.99;98.70
52319;BME280;38258;51.148;14.068;2022-09-09T09:54:19;98077.69;;;18.60;100.00
52319;BME280;38258;51.148;14.068;2022-09-09T09:56:54;98089.06;;;18.20;100.00
52319;BME280;38258;51.148;14.068;2022-09-09T09:59:23;98089.22;;;17.90;100.00
52319;BME280;38258;51.148;14.068;2022-09-09T10:02:13;98102.84;;;17.55;100.00
52319;BME280;38258;51.148;14.068;2022-09-09T10:04:40;98116.34;;;16.90;100.00
52319;BME280;38258;51.148;14.068;2022-09-09T10:07:10;98110.53;;;16.53;100.00
52319;BME280;38258;51.148;14.068;2022-09-09T10:09:37;98122.84;;;16.22;100.00
52319;BME280;38258;51.148;14.068;2022-09-09T10:12:16;98123.59;;;16.24;100.00
52319;BME280;38258;51.148;14.068;2022-09-09T10:14:51;98123.34;;;16.13;100.00
52319;BME280;38258;51.148;14.068;2022-09-09T10:17:28;98102.59;;;16.06;100.00
52319;BME280;38258;51.148;14.068;2022-09-09T10:20:16;98106.38;;;16.49;100.00
52319;BME280;38258;51.148;14.068;2022-09-09T10:22:51;98077.28;;;16.95;100.00
52319;BME280;38258;51.148;14.068;2022-09-09T10:25:38;98085.13;;;18.13;100.00
52319;BME280;38258;51.148;14.068;2022-09-09T10:28:27;98087.34;;;19.02;100.00
52319;BME280;38258;51.148;14.068;2022-09-09T10:31:06;98092.34;;;18.79;100.00
52319;BME280;38258;51.148;14.068;2022-09-09T10:33:44;98086.50;;;19.53;100.00
52319;BME280;38258;51.148;14.068;2022-09-09T10:36:17;98085.75;;;20.87;100.00
52319;BME280;38258;51.148;14.068;2022-09-09T10:38:47;98073.69;;;20.22;100.00
52319;BME280;38258;51.148;14.068;2022-09-09T10:41:31;98074.22;;;20.51;100.00
52319;BME280;38258;51.148;14.068;2022-09-09T10:44:21;98072.84;;;21.17;95.03
52319;BME280;38258;51.148;14.068;2022-09-09T10:47:12;98071.31;;;21.37;100.00
52319;BME280;38258;51.148;14.068;2022-09-09T10:50:05;98064.66;;;21.43;98.06
52319;BME280;38258;51.148;14.068;2022-09-09T10:52:37;98068.28;;;21.99;88.35
52319;BME280;38258;51.148;14.068;2022-09-09T10:55:11;98056.88;;;22.08;90.22
52319;BME280;38258;51.148;14.068;2022-09-09T10:57:42;98058.25;;;21.45;86.24
52319;BME280;38258;51.148;14.068;2022-09-09T11:00:17;98065.63;;;21.65;86.91
52319;BME280;38258;51.148;14.068;2022-09-09T11:02:49;98054.94;;;22.54;84.31
52319;BME280;38258;51.148;14.068;2022-09-09T11:05:20;98048.00;;;23.06;79.71
52319;BME280;38258;51.148;14.068;2022-09-09T11:07:52;98057.41;;;23.31;81.76
52319;BME280;38258;51.148;14.068;2022-09-09T11:10:25;98058.44;;;23.71;79.95
52319;BME280;38258;51.148;14.068;2022-09-09T11:12:56;98044.50;;;22.63;81.32
52319;BME280;38258;51.148;14.068;2022-09-09T11:15:31;98054.81;;;22.56;91.96
52319;BME280;38258;51.148;14.068;2022-09-09T11:18:04;98060.59;;;23.25;78.14
52319;BME280;38258;51.148;14.068;2022-09-09T11:20:33;98050.47;;;23.19;76.19
52319;BME280;38258;51.148;14.068;2022-09-09T11:23:03;98040.91;;;22.52;83.23
52319;BME280;38258;51.148;14.068;2022-09-09T11:25:37;98029.28;;;22.74;79.29
52319;BME280;38258;51.148;14.068;2022-09-09T11:28:18;98032.66;;;22.44;77.60
52319;BME280;38258;51.148;14.068;2022-09-09T11:31:00;98037.28;;;22.74;81.03
52319;BME280;38258;51.148;14.068;2022-09-09T11:33:58;98033.41;;;22.46;80.07
52319;BME280;38258;51.148;14.068;2022-09-09T11:36:51;98036.22;;;23.08;73.60
52319;BME280;38258;51.148;14.068;2022-09-09T11:39:37;98045.50;;;22.06;73.57
52319;BME280;38258;51.148;14.068;2022-09-09T11:42:06;98042.66;;;21.75;82.70
52319;BME280;38258;51.148;14.068;2022-09-09T11:44:34;98036.97;;;21.23;82.01
52319;BME280;38258;51.148;14.068;2022-09-09T11:47:02;98029.72;;;20.42;94.48
52319;BME280;38258;51.148;14.068;2022-09-09T11:49:39;98037.59;;;19.95;97.35
52319;BME280;38258;51.148;14.068;2022-09-09T11:52:11;98037.53;;;19.70;95.76
52319;BME280;38258;51.148;14.068;2022-09-09T11:54:46;98029.13;;;19.76;98.19
52319;BME280;38258;51.148;14.068;2022-09-09T11:57:25;98027.75;;;20.08;100.00
52319;BME280;38258;51.148;14.068;2022-09-09T11:59:54;98021.09;;;20.87;90.31
52319;BME280;38258;51.148;14.068;2022-09-09T12:02:25;98017.84;;;21.06;85.94
52319;BME280;38258;51.148;14.068;2022-09-09T12:04:59;98023.03;;;21.99;85.72
52319;BME280;38258;51.148;14.068;2022-09-09T12:07:36;98023.34;;;22.92;80.21
52319;BME280;38258;51.148;14.068;2022-09-09T12:10:20;98005.97;;;24.21;70.11
52319;BME280;38258;51.148;14.068;2022-09-09T12:12:48;98009.19;;;24.74;65.08
52319;BME280;38258;51.148;14.068;2022-09-09T12:15:27;98011.78;;;23.65;63.43
52319;BME280;38258;51.148;14.068;2022-09-09T12:17:57;98019.44;;;23.18;66.42
52319;BME280;38258;51.148;14.068;2022-09-09T12:20:31;98015.56;;;22.46;68.15
52319;BME280;38258;51.148;14.068;2022-09-09T12:23:13;97992.78;;;24.19;64.75
52319;BME280;38258;51.148;14.068;2022-09-09T12:25:57;98004.44;;;23.57;62.01
52319;BME280;38258;51.148;14.068;2022-09-09T12:28:44;97997.03;;;21.57;70.88
52319;BME280;38258;51.148;14.068;2022-09-09T12:31:17;97994.25;;;22.14;74.20
52319;BME280;38258;51.148;14.068;2022-09-09T12:33:48;97991.03;;;23.16;63.80
52319;BME280;38258;51.148;14.068;2022-09-09T12:36:19;97988.84;;;23.53;68.20
52319;BME280;38258;51.148;14.068;2022-09-09T12:38:53;97982.06;;;24.09;74.29
52319;BME280;38258;51.148;14.068;2022-09-09T12:41:23;97982.31;;;23.96;61.62
52319;BME280;38258;51.148;14.068;2022-09-09T12:43:51;97961.75;;;23.67;71.80
52319;BME280;38258;51.148;14.068;2022-09-09T12:46:24;97983.31;;;23.44;73.91
52319;BME280;38258;51.148;14.068;2022-09-09T12:48:58;97978.66;;;23.78;69.47
52319;BME280;38258;51.148;14.068;2022-09-09T12:51:28;97973.66;;;24.34;58.00
52319;BME280;38258;51.148;14.068;2022-09-09T12:53:56;97971.09;;;24.32;64.95
52319;BME280;38258;51.148;14.068;2022-09-09T12:56:25;97959.38;;;23.94;67.64
52319;BME280;38258;51.148;14.068;2022-09-09T12:58:55;97981.00;;;23.61;68.90
52319;BME280;38258;51.148;14.068;2022-09-09T13:01:25;97971.72;;;23.55;68.72
52319;BME280;38258;51.148;14.068;2022-09-09T13:03:52;97964.72;;;23.94;65.01
52319;BME280;38258;51.148;14.068;2022-09-09T13:06:26;97959.84;;;23.99;62.13
52319;BME280;38258;51.148;14.068;2022-09-09T13:08:55;97945.91;;;23.76;72.03
52319;BME280;38258;51.148;14.068;2022-09-09T13:11:24;97945.13;;;22.18;71.10
52319;BME280;38258;51.148;14.068;2022-09-09T13:13:55;97958.50;;;22.61;68.95